sensor_id;sensor_type;location;lat;lon;timestamp;P1;durP1;ratioP1;P2;durP2;ratioP2
31652;SDS011;18261;53.648;9.910;2023-07-31T00:02:24;16.88;;;2.95;;
31652;SDS011;18261;53.648;9.910;2023-07-31T00:04:50;19.88;;;2.90;;
31652;SDS011;18261;53.648;9.910;2023-07-31T00:07:16;21.98;;;3.72;;
31652;SDS011;18261;53.648;9.910;2023-07-31T00:09:42;21.55;;;2.78;;
31652;SDS011;18261;53.648;9.910;2023-07-31T00:12:08;15.63;;;2.63;;
31652;SDS011;18261;53.648;9.910;2023-07-31T00:14:34;16.85;;;2.45;;
31652;SDS011;18261;53.648;9.910;2023-07-31T00:17:00;11.93;;;2.70;;
31652;SDS011;18261;53.648;9.910;2023-07-31T00:19:27;19.40;;;2.65;;
31652;SDS011;18261;53.648;9.910;2023-07-31T00:21:52;13.30;;;2.58;;
31652;SDS011;18261;53.648;9.910;2023-07-31T00:24:18;10.57;;;2.45;;
31652;SDS011;18261;53.648;9.910;2023-07-31T00:26:44;15.13;;;3.00;;
31652;SDS011;18261;53.648;9.910;2023-07-31T00:29:10;13.23;;;2.55;;
31652;SDS011;18261;53.648;9.910;2023-07-31T00:31:36;16.65;;;3.03;;
31652;SDS011;18261;53.648;9.910;2023-07-31T00:34:02;13.10;;;2.78;;
31652;SDS011;18261;53.648;9.910;2023-07-31T00:36:28;18.48;;;3.10;;
31652;SDS011;18261;53.648;9.910;2023-07-31T00:38:54;17.98;;;3.25;;
31652;SDS011;18261;53.648;9.910;2023-07-31T00:41:20;21.70;;;2.58;;
31652;SDS011;18261;53.648;9.910;2023-07-31T00:43:46;16.73;;;2.92;;
31652;SDS011;18261;53.648;9.910;2023-07-31T00:46:12;22.15;;;3.20;;
31652;SDS011;18261;53.648;9.910;2023-07-31T00:48:38;14.70;;;2.70;;
31652;SDS011;18261;53.648;9.910;2023-07-31T00:51:06;23.17;;;2.78;;
31652;SDS011;18261;53.648;9.910;2023-07-31T00:53:33;10.07;;;2.60;;
31652;SDS011;18261;53.648;9.910;2023-07-31T00:55:59;13.45;;;2.90;;
31652;SDS011;18261;53.648;9.910;2023-07-31T00:58:25;20.13;;;2.90;;
31652;SDS011;18261;53.648;9.910;2023-07-31T01:00:51;13.90;;;3.00;;
31652;SDS011;18261;53.648;9.910;2023-07-31T01:03:18;16.02;;;2.97;;
31652;SDS011;18261;53.648;9.910;2023-07-31T01:05:49;17.48;;;2.78;;
31652;SDS011;18261;53.648;9.910;2023-07-31T01:10:49;24.35;;;3.00;;
31652;SDS011;18261;53.648;9.910;2023-07-31T01:13:16;19.55;;;3.10;;
31652;SDS011;18261;53.648;9.910;2023-07-31T01:15:43;12.25;;;2.67;;
31652;SDS011;18261;53.648;9.910;2023-07-31T01:18:09;23.65;;;3.40;;
31652;SDS011;18261;53.648;9.910;2023-07-31T01:20:35;12.45;;;2.78;;
31652;SDS011;18261;53.648;9.910;2023-07-31T01:28:13;11.38;;;2.53;;
31652;SDS011;18261;53.648;9.910;2023-07-31T01:30:41;17.88;;;3.08;;
31652;SDS011;18261;53.648;9.910;2023-07-31T01:33:08;9.48;;;2.58;;
31652;SDS011;18261;53.648;9.910;2023-07-31T01:35:35;16.75;;;3.90;;
31652;SDS011;18261;53.648;9.910;2023-07-31T01:38:02;16.52;;;2.90;;
31652;SDS011;18261;53.648;9.910;2023-07-31T01:40:28;13.35;;;3.42;;
31652;SDS011;18261;53.648;9.910;2023-07-31T01:42:53;18.58;;;3.65;;
31652;SDS011;18261;53.648;9.910;2023-07-31T01:45:19;15.40;;;3.30;;
31652;SDS011;18261;53.648;9.910;2023-07-31T01:47:45;15.40;;;3.13;;
31652;SDS011;18261;53.648;9.910;2023-07-31T01:50:11;20.23;;;3.65;;
31652;SDS011;18261;53.648;9.910;2023-07-31T01:52:37;10.20;;;2.97;;
31652;SDS011;18261;53.648;9.910;2023-07-31T01:55:03;18.85;;;3.40;;
31652;SDS011;18261;53.648;9.910;2023-07-31T01:57:30;14.82;;;3.30;;
31652;SDS011;18261;53.648;9.910;2023-07-31T01:59:56;17.63;;;3.35;;
31652;SDS011;18261;53.648;9.910;2023-07-31T02:02:22;14.50;;;3.58;;
31652;SDS011;18261;53.648;9.910;2023-07-31T02:04:48;14.68;;;3.30;;
31652;SDS011;18261;53.648;9.910;2023-07-31T02:07:14;15.60;;;4.00;;
31652;SDS011;18261;53.648;9.910;2023-07-31T02:09:40;19.77;;;3.60;;
31652;SDS011;18261;53.648;9.910;2023-07-31T02:12:06;17.63;;;3.80;;
31652;SDS011;18261;53.648;9.910;2023-07-31T02:14:33;14.88;;;3.17;;
31652;SDS011;18261;53.648;9.910;2023-07-31T02:16:59;12.93;;;3.83;;
31652;SDS011;18261;53.648;9.910;2023-07-31T02:19:25;20.85;;;3.78;;
31652;SDS011;18261;53.648;9.910;2023-07-31T02:21:51;14.98;;;4.05;;
31652;SDS011;18261;53.648;9.910;2023-07-31T02:24:17;23.13;;;3.78;;
31652;SDS011;18261;53.648;9.910;2023-07-31T02:26:43;18.27;;;4.10;;
31652;SDS011;18261;53.648;9.910;2023-07-31T02:29:09;20.83;;;3.97;;
31652;SDS011;18261;53.648;9.910;2023-07-31T02:31:35;14.65;;;3.45;;
31652;SDS011;18261;53.648;9.910;2023-07-31T02:34:01;21.52;;;3.42;;
31652;SDS011;18261;53.648;9.910;2023-07-31T02:36:27;17.65;;;3.58;;
31652;SDS011;18261;53.648;9.910;2023-07-31T02:38:53;14.10;;;3.72;;
31652;SDS011;18261;53.648;9.910;2023-07-31T02:41:20;19.33;;;3.80;;
31652;SDS011;18261;53.648;9.910;2023-07-31T02:43:46;15.10;;;4.40;;
31652;SDS011;18261;53.648;9.910;2023-07-31T02:46:12;14.75;;;3.83;;
31652;SDS011;18261;53.648;9.910;2023-07-31T02:48:38;16.00;;;3.63;;
31652;SDS011;18261;53.648;9.910;2023-07-31T02:51:04;17.42;;;3.88;;
31652;SDS011;18261;53.648;9.910;2023-07-31T02:53:30;17.25;;;4.03;;
31652;SDS011;18261;53.648;9.910;2023-07-31T02:55:56;15.30;;;4.28;;
31652;SDS011;18261;53.648;9.910;2023-07-31T02:58:22;17.63;;;3.42;;
31652;SDS011;18261;53.648;9.910;2023-07-31T03:00:48;15.57;;;3.78;;
31652;SDS011;18261;53.648;9.910;2023-07-31T03:03:14;19.58;;;5.13;;
31652;SDS011;18261;53.648;9.910;2023-07-31T03:05:40;17.88;;;4.63;;
31652;SDS011;18261;53.648;9.910;2023-07-31T03:08:06;15.63;;;4.28;;
31652;SDS011;18261;53.648;9.910;2023-07-31T03:10:32;14.20;;;3.95;;
31652;SDS011;18261;53.648;9.910;2023-07-31T03:12:58;17.70;;;4.13;;
31652;SDS011;18261;53.648;9.910;2023-07-31T03:15:24;19.08;;;4.57;;
31652;SDS011;18261;53.648;9.910;2023-07-31T03:17:50;16.42;;;4.05;;
31652;SDS011;18261;53.648;9.910;2023-07-31T03:20:16;13.85;;;3.63;;
31652;SDS011;18261;53.648;9.910;2023-07-31T03:22:42;15.90;;;4.25;;
31652;SDS011;18261;53.648;9.910;2023-07-31T03:25:08;12.65;;;3.40;;
31652;SDS011;18261;53.648;9.910;2023-07-31T03:27:35;15.77;;;3.95;;
31652;SDS011;18261;53.648;9.910;2023-07-31T03:30:02;14.30;;;4.38;;
31652;SDS011;18261;53.648;9.910;2023-07-31T03:32:28;15.52;;;4.00;;
31652;SDS011;18261;53.648;9.910;2023-07-31T03:34:54;13.85;;;3.92;;
31652;SDS011;18261;53.648;9.910;2023-07-31T03:37:20;14.70;;;3.92;;
31652;SDS011;18261;53.648;9.910;2023-07-31T03:39:46;18.92;;;4.00;;
31652;SDS011;18261;53.648;9.910;2023-07-31T03:42:12;12.93;;;4.03;;
31652;SDS011;18261;53.648;9.910;2023-07-31T03:44:38;10.43;;;3.75;;
31652;SDS011;18261;53.648;9.910;2023-07-31T03:47:04;19.15;;;3.80;;
31652;SDS011;18261;53.648;9.910;2023-07-31T03:49:30;12.90;;;3.80;;
31652;SDS011;18261;53.648;9.910;2023-07-31T03:51:56;17.65;;;4.38;;
31652;SDS011;18261;53.648;9.910;2023-07-31T03:54:22;15.35;;;4.70;;
31652;SDS011;18261;53.648;9.910;2023-07-31T03:56:48;14.18;;;4.30;;
31652;SDS011;18261;53.648;9.910;2023-07-31T03:59:14;12.55;;;3.97;;
31652;SDS011;18261;53.648;9.910;2023-07-31T04:01:40;16.58;;;4.00;;
31652;SDS011;18261;53.648;9.910;2023-07-31T04:04:06;12.93;;;3.75;;
31652;SDS011;18261;53.648;9.910;2023-07-31T04:06:32;15.10;;;4.68;;
31652;SDS011;18261;53.648;9.910;2023-07-31T04:08:58;12.65;;;3.97;;
31652;SDS011;18261;53.648;9.910;2023-07-31T04:11:24;13.82;;;3.55;;
31652;SDS011;18261;53.648;9.910;2023-07-31T04:13:50;18.35;;;4.47;;
31652;SDS011;18261;53.648;9.910;2023-07-31T04:16:16;17.23;;;3.85;;
31652;SDS011;18261;53.648;9.910;2023-07-31T04:18:42;8.75;;;3.95;;
31652;SDS011;18261;53.648;9.910;2023-07-31T04:21:08;15.50;;;3.78;;
31652;SDS011;18261;53.648;9.910;2023-07-31T04:23:35;15.82;;;3.95;;
31652;SDS011;18261;53.648;9.910;2023-07-31T04:26:01;11.65;;;4.03;;
31652;SDS011;18261;53.648;9.910;2023-07-31T04:28:27;15.32;;;4.15;;
31652;SDS011;18261;53.648;9.910;2023-07-31T04:30:52;6.25;;;3.35;;
31652;SDS011;18261;53.648;9.910;2023-07-31T04:33:19;14.32;;;4.32;;
31652;SDS011;18261;53.648;9.910;2023-07-31T04:35:49;12.95;;;3.70;;
31652;SDS011;18261;53.648;9.910;2023-07-31T04:38:17;11.18;;;3.33;;
31652;SDS011;18261;53.648;9.910;2023-07-31T04:40:43;7.55;;;2.90;;
31652;SDS011;18261;53.648;9.910;2023-07-31T04:43:09;8.90;;;3.78;;
31652;SDS011;18261;53.648;9.910;2023-07-31T04:45:35;8.52;;;3.40;;
31652;SDS011;18261;53.648;9.910;2023-07-31T04:48:01;9.13;;;2.97;;
31652;SDS011;18261;53.648;9.910;2023-07-31T04:50:27;5.93;;;3.40;;
31652;SDS011;18261;53.648;9.910;2023-07-31T04:52:53;9.20;;;2.65;;
31652;SDS011;18261;53.648;9.910;2023-07-31T04:55:19;4.68;;;2.75;;
31652;SDS011;18261;53.648;9.910;2023-07-31T04:57:45;7.78;;;3.03;;
31652;SDS011;18261;53.648;9.910;2023-07-31T05:00:11;4.93;;;2.95;;
31652;SDS011;18261;53.648;9.910;2023-07-31T05:02:37;11.48;;;3.10;;
31652;SDS011;18261;53.648;9.910;2023-07-31T05:05:03;5.47;;;2.65;;
31652;SDS011;18261;53.648;9.910;2023-07-31T05:07:29;6.65;;;2.60;;
31652;SDS011;18261;53.648;9.910;2023-07-31T05:09:55;4.10;;;2.42;;
31652;SDS011;18261;53.648;9.910;2023-07-31T05:12:21;5.90;;;2.92;;
31652;SDS011;18261;53.648;9.910;2023-07-31T05:14:47;5.57;;;2.42;;
31652;SDS011;18261;53.648;9.910;2023-07-31T05:17:13;7.28;;;2.70;;
31652;SDS011;18261;53.648;9.910;2023-07-31T05:19:39;6.43;;;2.30;;
31652;SDS011;18261;53.648;9.910;2023-07-31T05:22:05;3.47;;;2.30;;
31652;SDS011;18261;53.648;9.910;2023-07-31T05:24:31;8.77;;;2.63;;
31652;SDS011;18261;53.648;9.910;2023-07-31T05:26:58;3.80;;;2.15;;
31652;SDS011;18261;53.648;9.910;2023-07-31T05:29:24;5.03;;;3.40;;
31652;SDS011;18261;53.648;9.910;2023-07-31T05:31:50;6.22;;;2.25;;
31652;SDS011;18261;53.648;9.910;2023-07-31T05:34:16;4.43;;;2.20;;
31652;SDS011;18261;53.648;9.910;2023-07-31T05:36:42;4.30;;;2.17;;
31652;SDS011;18261;53.648;9.910;2023-07-31T05:39:08;3.13;;;2.15;;
31652;SDS011;18261;53.648;9.910;2023-07-31T05:41:35;2.90;;;2.20;;
31652;SDS011;18261;53.648;9.910;2023-07-31T05:44:01;10.75;;;3.15;;
31652;SDS011;18261;53.648;9.910;2023-07-31T05:46:27;5.90;;;2.40;;
31652;SDS011;18261;53.648;9.910;2023-07-31T05:48:53;3.08;;;2.00;;
31652;SDS011;18261;53.648;9.910;2023-07-31T05:51:19;4.57;;;2.08;;
31652;SDS011;18261;53.648;9.910;2023-07-31T05:53:45;5.72;;;2.03;;
31652;SDS011;18261;53.648;9.910;2023-07-31T05:56:11;3.95;;;2.40;;
31652;SDS011;18261;53.648;9.910;2023-07-31T05:58:37;6.45;;;2.03;;
31652;SDS011;18261;53.648;9.910;2023-07-31T06:01:02;7.43;;;2.30;;
31652;SDS011;18261;53.648;9.910;2023-07-31T06:03:28;8.13;;;2.17;;
31652;SDS011;18261;53.648;9.910;2023-07-31T06:05:55;6.30;;;2.50;;
31652;SDS011;18261;53.648;9.910;2023-07-31T06:08:21;5.55;;;2.67;;
31652;SDS011;18261;53.648;9.910;2023-07-31T06:10:47;4.40;;;2.30;;
31652;SDS011;18261;53.648;9.910;2023-07-31T06:13:13;3.50;;;1.90;;
31652;SDS011;18261;53.648;9.910;2023-07-31T06:15:39;3.05;;;1.83;;
31652;SDS011;18261;53.648;9.910;2023-07-31T06:18:05;2.60;;;1.90;;
31652;SDS011;18261;53.648;9.910;2023-07-31T06:20:33;3.70;;;2.35;;
31652;SDS011;18261;53.648;9.910;2023-07-31T06:22:59;3.75;;;1.80;;
31652;SDS011;18261;53.648;9.910;2023-07-31T06:25:25;6.38;;;2.20;;
31652;SDS011;18261;53.648;9.910;2023-07-31T06:27:51;17.45;;;10.55;;
31652;SDS011;18261;53.648;9.910;2023-07-31T06:30:17;3.25;;;2.13;;
31652;SDS011;18261;53.648;9.910;2023-07-31T06:32:43;3.22;;;2.00;;
31652;SDS011;18261;53.648;9.910;2023-07-31T06:35:09;3.95;;;2.10;;
31652;SDS011;18261;53.648;9.910;2023-07-31T06:37:35;5.95;;;2.28;;
31652;SDS011;18261;53.648;9.910;2023-07-31T06:40:01;3.00;;;1.90;;
31652;SDS011;18261;53.648;9.910;2023-07-31T06:42:27;5.13;;;2.00;;
31652;SDS011;18261;53.648;9.910;2023-07-31T06:44:53;7.43;;;2.35;;
31652;SDS011;18261;53.648;9.910;2023-07-31T06:47:19;2.92;;;1.95;;
31652;SDS011;18261;53.648;9.910;2023-07-31T06:49:45;4.43;;;2.05;;
31652;SDS011;18261;53.648;9.910;2023-07-31T06:52:11;2.13;;;1.67;;
31652;SDS011;18261;53.648;9.910;2023-07-31T06:54:37;5.35;;;2.20;;
31652;SDS011;18261;53.648;9.910;2023-07-31T06:57:03;5.90;;;2.42;;
31652;SDS011;18261;53.648;9.910;2023-07-31T06:59:29;2.13;;;1.80;;
31652;SDS011;18261;53.648;9.910;2023-07-31T07:01:55;7.57;;;2.22;;
31652;SDS011;18261;53.648;9.910;2023-07-31T07:04:21;2.80;;;2.10;;
31652;SDS011;18261;53.648;9.910;2023-07-31T07:06:47;3.42;;;2.08;;
31652;SDS011;18261;53.648;9.910;2023-07-31T07:09:13;2.88;;;2.10;;
31652;SDS011;18261;53.648;9.910;2023-07-31T07:11:39;5.25;;;2.33;;
31652;SDS011;18261;53.648;9.910;2023-07-31T07:14:05;2.53;;;2.22;;
31652;SDS011;18261;53.648;9.910;2023-07-31T07:16:31;2.63;;;1.77;;
31652;SDS011;18261;53.648;9.910;2023-07-31T07:18:57;3.78;;;2.05;;
31652;SDS011;18261;53.648;9.910;2023-07-31T07:21:23;4.85;;;1.90;;
31652;SDS011;18261;53.648;9.910;2023-07-31T07:23:49;3.13;;;2.20;;
31652;SDS011;18261;53.648;9.910;2023-07-31T07:26:15;2.00;;;1.80;;
31652;SDS011;18261;53.648;9.910;2023-07-31T07:28:41;7.60;;;4.78;;
31652;SDS011;18261;53.648;9.910;2023-07-31T07:31:07;2.25;;;1.75;;
31652;SDS011;18261;53.648;9.910;2023-07-31T07:33:33;2.17;;;1.58;;
31652;SDS011;18261;53.648;9.910;2023-07-31T07:36:01;2.17;;;1.90;;
31652;SDS011;18261;53.648;9.910;2023-07-31T07:38:28;4.22;;;1.70;;
31652;SDS011;18261;53.648;9.910;2023-07-31T07:40:54;2.83;;;1.67;;
31652;SDS011;18261;53.648;9.910;2023-07-31T07:43:20;3.33;;;1.80;;
31652;SDS011;18261;53.648;9.910;2023-07-31T07:45:46;2.30;;;1.60;;
31652;SDS011;18261;53.648;9.910;2023-07-31T07:48:12;1.50;;;1.40;;
31652;SDS011;18261;53.648;9.910;2023-07-31T07:50:38;3.90;;;1.90;;
31652;SDS011;18261;53.648;9.910;2023-07-31T07:53:04;2.58;;;1.65;;
31652;SDS011;18261;53.648;9.910;2023-07-31T07:55:31;2.45;;;1.90;;
31652;SDS011;18261;53.648;9.910;2023-07-31T07:57:57;2.78;;;1.90;;
31652;SDS011;18261;53.648;9.910;2023-07-31T08:00:22;3.50;;;2.13;;
31652;SDS011;18261;53.648;9.910;2023-07-31T08:02:48;5.50;;;1.65;;
31652;SDS011;18261;53.648;9.910;2023-07-31T08:05:14;5.32;;;2.05;;
31652;SDS011;18261;53.648;9.910;2023-07-31T08:07:42;2.95;;;1.77;;
31652;SDS011;18261;53.648;9.910;2023-07-31T08:10:08;3.50;;;1.77;;
31652;SDS011;18261;53.648;9.910;2023-07-31T08:12:34;2.50;;;1.55;;
31652;SDS011;18261;53.648;9.910;2023-07-31T08:15:00;5.55;;;2.35;;
31652;SDS011;18261;53.648;9.910;2023-07-31T08:17:26;2.40;;;1.75;;
31652;SDS011;18261;53.648;9.910;2023-07-31T08:19:52;2.78;;;1.95;;
31652;SDS011;18261;53.648;9.910;2023-07-31T08:22:18;4.00;;;2.03;;
31652;SDS011;18261;53.648;9.910;2023-07-31T08:24:44;3.05;;;1.83;;
31652;SDS011;18261;53.648;9.910;2023-07-31T08:27:10;2.70;;;1.40;;
31652;SDS011;18261;53.648;9.910;2023-07-31T08:29:36;1.83;;;1.52;;
31652;SDS011;18261;53.648;9.910;2023-07-31T08:32:02;4.55;;;1.88;;
31652;SDS011;18261;53.648;9.910;2023-07-31T08:34:28;4.60;;;1.95;;
31652;SDS011;18261;53.648;9.910;2023-07-31T08:36:54;2.95;;;2.10;;
31652;SDS011;18261;53.648;9.910;2023-07-31T08:39:20;2.75;;;1.60;;
31652;SDS011;18261;53.648;9.910;2023-07-31T08:41:47;2.00;;;1.58;;
31652;SDS011;18261;53.648;9.910;2023-07-31T08:44:13;3.15;;;1.88;;
31652;SDS011;18261;53.648;9.910;2023-07-31T08:46:39;2.08;;;1.65;;
31652;SDS011;18261;53.648;9.910;2023-07-31T08:49:06;3.20;;;1.70;;
31652;SDS011;18261;53.648;9.910;2023-07-31T08:51:36;2.03;;;1.40;;
31652;SDS011;18261;53.648;9.910;2023-07-31T08:54:02;5.18;;;2.55;;
31652;SDS011;18261;53.648;9.910;2023-07-31T08:56:31;4.38;;;2.50;;
31652;SDS011;18261;53.648;9.910;2023-07-31T08:58:58;3.55;;;2.45;;
31652;SDS011;18261;53.648;9.910;2023-07-31T09:01:25;2.60;;;1.60;;
31652;SDS011;18261;53.648;9.910;2023-07-31T09:03:51;2.28;;;1.40;;
31652;SDS011;18261;53.648;9.910;2023-07-31T09:06:18;4.22;;;2.85;;
31652;SDS011;18261;53.648;9.910;2023-07-31T09:08:44;3.95;;;1.30;;
31652;SDS011;18261;53.648;9.910;2023-07-31T09:11:10;2.10;;;0.90;;
31652;SDS011;18261;53.648;9.910;2023-07-31T09:13:36;1.98;;;1.25;;
31652;SDS011;18261;53.648;9.910;2023-07-31T09:16:03;2.53;;;1.05;;
31652;SDS011;18261;53.648;9.910;2023-07-31T09:18:29;3.00;;;1.63;;
31652;SDS011;18261;53.648;9.910;2023-07-31T09:21:02;1.67;;;1.10;;
31652;SDS011;18261;53.648;9.910;2023-07-31T09:23:39;3.97;;;1.20;;
31652;SDS011;18261;53.648;9.910;2023-07-31T09:26:06;2.58;;;1.50;;
31652;SDS011;18261;53.648;9.910;2023-07-31T09:28:32;2.40;;;1.23;;
31652;SDS011;18261;53.648;9.910;2023-07-31T09:30:58;2.88;;;1.50;;
31652;SDS011;18261;53.648;9.910;2023-07-31T09:33:24;4.45;;;1.48;;
31652;SDS011;18261;53.648;9.910;2023-07-31T09:35:50;2.10;;;1.10;;
31652;SDS011;18261;53.648;9.910;2023-07-31T09:38:16;1.95;;;1.33;;
31652;SDS011;18261;53.648;9.910;2023-07-31T09:40:46;3.60;;;1.30;;
31652;SDS011;18261;53.648;9.910;2023-07-31T09:43:24;2.42;;;1.60;;
31652;SDS011;18261;53.648;9.910;2023-07-31T09:45:54;2.30;;;1.17;;
31652;SDS011;18261;53.648;9.910;2023-07-31T09:48:22;1.80;;;1.25;;
31652;SDS011;18261;53.648;9.910;2023-07-31T09:50:51;3.08;;;1.77;;
31652;SDS011;18261;53.648;9.910;2023-07-31T09:53:17;2.70;;;1.75;;
31652;SDS011;18261;53.648;9.910;2023-07-31T09:55:43;5.18;;;1.60;;
31652;SDS011;18261;53.648;9.910;2023-07-31T09:58:10;4.45;;;2.20;;
31652;SDS011;18261;53.648;9.910;2023-07-31T10:00:37;3.13;;;2.10;;
31652;SDS011;18261;53.648;9.910;2023-07-31T10:03:07;1.40;;;1.30;;
31652;SDS011;18261;53.648;9.910;2023-07-31T10:08:02;1.95;;;1.23;;
31652;SDS011;18261;53.648;9.910;2023-07-31T10:10:28;3.58;;;2.00;;
31652;SDS011;18261;53.648;9.910;2023-07-31T10:12:55;2.83;;;1.70;;
31652;SDS011;18261;53.648;9.910;2023-07-31T10:15:22;2.13;;;1.40;;
31652;SDS011;18261;53.648;9.910;2023-07-31T10:17:49;1.85;;;1.30;;
31652;SDS011;18261;53.648;9.910;2023-07-31T10:20:16;4.35;;;2.10;;
31652;SDS011;18261;53.648;9.910;2023-07-31T10:22:42;2.63;;;1.65;;
31652;SDS011;18261;53.648;9.910;2023-07-31T10:25:09;3.30;;;1.70;;
31652;SDS011;18261;53.648;9.910;2023-07-31T10:27:35;4.30;;;1.67;;
31652;SDS011;18261;53.648;9.910;2023-07-31T10:30:02;4.13;;;1.75;;
31652;SDS011;18261;53.648;9.910;2023-07-31T10:32:29;2.80;;;1.63;;
31652;SDS011;18261;53.648;9.910;2023-07-31T10:34:56;6.97;;;3.15;;
31652;SDS011;18261;53.648;9.910;2023-07-31T10:37:26;2.75;;;1.77;;
31652;SDS011;18261;53.648;9.910;2023-07-31T10:42:29;5.95;;;4.10;;
31652;SDS011;18261;53.648;9.910;2023-07-31T10:44:59;6.63;;;3.30;;
31652;SDS011;18261;53.648;9.910;2023-07-31T10:47:25;4.15;;;1.98;;
31652;SDS011;18261;53.648;9.910;2023-07-31T10:49:51;4.47;;;2.05;;
31652;SDS011;18261;53.648;9.910;2023-07-31T10:52:20;4.45;;;2.42;;
31652;SDS011;18261;53.648;9.910;2023-07-31T10:55:10;3.33;;;1.27;;
31652;SDS011;18261;53.648;9.910;2023-07-31T10:57:37;2.10;;;0.90;;
31652;SDS011;18261;53.648;9.910;2023-07-31T11:00:17;1.42;;;0.93;;
31652;SDS011;18261;53.648;9.910;2023-07-31T11:02:43;4.53;;;1.35;;
31652;SDS011;18261;53.648;9.910;2023-07-31T11:05:22;2.45;;;1.40;;
31652;SDS011;18261;53.648;9.910;2023-07-31T11:10:38;2.83;;;1.50;;
31652;SDS011;18261;53.648;9.910;2023-07-31T11:13:04;1.60;;;1.10;;
31652;SDS011;18261;53.648;9.910;2023-07-31T11:15:30;2.45;;;1.10;;
31652;SDS011;18261;53.648;9.910;2023-07-31T11:17:56;1.85;;;1.00;;
31652;SDS011;18261;53.648;9.910;2023-07-31T11:20:23;4.07;;;1.20;;
31652;SDS011;18261;53.648;9.910;2023-07-31T11:22:49;3.53;;;1.42;;
31652;SDS011;18261;53.648;9.910;2023-07-31T11:25:16;17.58;;;11.60;;
31652;SDS011;18261;53.648;9.910;2023-07-31T11:27:42;11.25;;;8.23;;
31652;SDS011;18261;53.648;9.910;2023-07-31T11:30:08;4.13;;;2.50;;
31652;SDS011;18261;53.648;9.910;2023-07-31T11:32:37;4.03;;;2.20;;
31652;SDS011;18261;53.648;9.910;2023-07-31T11:35:04;2.33;;;1.80;;
31652;SDS011;18261;53.648;9.910;2023-07-31T11:37:43;2.90;;;2.00;;
31652;SDS011;18261;53.648;9.910;2023-07-31T11:40:10;2.42;;;1.40;;
31652;SDS011;18261;53.648;9.910;2023-07-31T11:42:37;4.93;;;1.48;;
31652;SDS011;18261;53.648;9.910;2023-07-31T11:45:03;3.45;;;1.50;;
31652;SDS011;18261;53.648;9.910;2023-07-31T11:47:29;3.15;;;1.25;;
31652;SDS011;18261;53.648;9.910;2023-07-31T11:49:56;2.55;;;0.98;;
31652;SDS011;18261;53.648;9.910;2023-07-31T11:52:21;1.73;;;0.90;;
31652;SDS011;18261;53.648;9.910;2023-07-31T11:54:49;3.22;;;1.30;;
31652;SDS011;18261;53.648;9.910;2023-07-31T11:57:15;2.38;;;1.30;;
31652;SDS011;18261;53.648;9.910;2023-07-31T11:59:41;1.48;;;0.93;;
31652;SDS011;18261;53.648;9.910;2023-07-31T12:02:07;2.58;;;0.93;;
31652;SDS011;18261;53.648;9.910;2023-07-31T12:04:34;4.15;;;1.40;;
31652;SDS011;18261;53.648;9.910;2023-07-31T12:07:00;2.90;;;1.30;;
31652;SDS011;18261;53.648;9.910;2023-07-31T12:09:26;3.47;;;2.65;;
31652;SDS011;18261;53.648;9.910;2023-07-31T12:11:52;2.78;;;1.10;;
31652;SDS011;18261;53.648;9.910;2023-07-31T12:14:25;1.67;;;1.08;;
31652;SDS011;18261;53.648;9.910;2023-07-31T12:16:58;1.75;;;1.10;;
31652;SDS011;18261;53.648;9.910;2023-07-31T12:19:27;1.42;;;1.05;;
31652;SDS011;18261;53.648;9.910;2023-07-31T12:21:54;2.83;;;1.05;;
31652;SDS011;18261;53.648;9.910;2023-07-31T12:24:21;3.90;;;2.60;;
31652;SDS011;18261;53.648;9.910;2023-07-31T12:26:47;2.28;;;1.48;;
31652;SDS011;18261;53.648;9.910;2023-07-31T12:29:14;1.63;;;1.00;;
31652;SDS011;18261;53.648;9.910;2023-07-31T12:31:43;2.45;;;0.80;;
31652;SDS011;18261;53.648;9.910;2023-07-31T12:34:18;3.60;;;1.88;;
31652;SDS011;18261;53.648;9.910;2023-07-31T12:36:46;34.08;;;22.77;;
31652;SDS011;18261;53.648;9.910;2023-07-31T12:39:14;5.18;;;3.45;;
31652;SDS011;18261;53.648;9.910;2023-07-31T12:41:40;3.58;;;1.73;;
31652;SDS011;18261;53.648;9.910;2023-07-31T12:44:06;1.83;;;1.40;;
31652;SDS011;18261;53.648;9.910;2023-07-31T12:46:32;1.65;;;1.00;;
31652;SDS011;18261;53.648;9.910;2023-07-31T12:48:58;5.60;;;4.10;;
31652;SDS011;18261;53.648;9.910;2023-07-31T12:51:24;5.70;;;1.70;;
31652;SDS011;18261;53.648;9.910;2023-07-31T12:53:50;2.35;;;0.88;;
31652;SDS011;18261;53.648;9.910;2023-07-31T12:56:16;1.90;;;1.30;;
31652;SDS011;18261;53.648;9.910;2023-07-31T12:58:42;1.15;;;0.70;;
31652;SDS011;18261;53.648;9.910;2023-07-31T13:01:09;1.13;;;0.73;;
31652;SDS011;18261;53.648;9.910;2023-07-31T13:03:35;1.58;;;1.10;;
31652;SDS011;18261;53.648;9.910;2023-07-31T13:06:01;2.72;;;1.10;;
31652;SDS011;18261;53.648;9.910;2023-07-31T13:08:27;1.55;;;0.95;;
31652;SDS011;18261;53.648;9.910;2023-07-31T13:10:53;1.45;;;0.80;;
31652;SDS011;18261;53.648;9.910;2023-07-31T13:13:19;1.05;;;0.80;;
31652;SDS011;18261;53.648;9.910;2023-07-31T13:15:45;2.47;;;1.02;;
31652;SDS011;18261;53.648;9.910;2023-07-31T13:18:11;1.70;;;1.15;;
31652;SDS011;18261;53.648;9.910;2023-07-31T13:20:37;3.00;;;1.73;;
31652;SDS011;18261;53.648;9.910;2023-07-31T13:23:03;5.20;;;1.00;;
31652;SDS011;18261;53.648;9.910;2023-07-31T13:25:29;3.67;;;1.25;;
31652;SDS011;18261;53.648;9.910;2023-07-31T13:27:55;1.05;;;0.70;;
31652;SDS011;18261;53.648;9.910;2023-07-31T13:30:21;0.75;;;0.60;;
31652;SDS011;18261;53.648;9.910;2023-07-31T13:32:47;1.63;;;0.77;;
31652;SDS011;18261;53.648;9.910;2023-07-31T13:35:13;1.20;;;0.80;;
31652;SDS011;18261;53.648;9.910;2023-07-31T13:37:39;1.75;;;0.80;;
31652;SDS011;18261;53.648;9.910;2023-07-31T13:40:05;0.88;;;0.70;;
31652;SDS011;18261;53.648;9.910;2023-07-31T13:42:31;1.80;;;0.85;;
31652;SDS011;18261;53.648;9.910;2023-07-31T13:44:57;3.72;;;2.00;;
31652;SDS011;18261;53.648;9.910;2023-07-31T13:47:23;2.15;;;1.17;;
31652;SDS011;18261;53.648;9.910;2023-07-31T13:49:49;2.05;;;0.90;;
31652;SDS011;18261;53.648;9.910;2023-07-31T13:52:15;1.50;;;0.82;;
31652;SDS011;18261;53.648;9.910;2023-07-31T13:54:41;1.73;;;0.88;;
31652;SDS011;18261;53.648;9.910;2023-07-31T13:57:08;0.88;;;0.63;;
31652;SDS011;18261;53.648;9.910;2023-07-31T13:59:34;0.90;;;0.65;;
31652;SDS011;18261;53.648;9.910;2023-07-31T14:02:00;4.47;;;2.63;;
31652;SDS011;18261;53.648;9.910;2023-07-31T14:04:26;2.83;;;1.30;;
31652;SDS011;18261;53.648;9.910;2023-07-31T14:06:52;1.15;;;0.70;;
31652;SDS011;18261;53.648;9.910;2023-07-31T14:09:18;2.80;;;0.90;;
31652;SDS011;18261;53.648;9.910;2023-07-31T14:11:44;1.52;;;0.70;;
31652;SDS011;18261;53.648;9.910;2023-07-31T14:14:10;4.20;;;0.70;;
31652;SDS011;18261;53.648;9.910;2023-07-31T14:16:36;1.33;;;0.60;;
31652;SDS011;18261;53.648;9.910;2023-07-31T14:19:02;0.80;;;0.60;;
31652;SDS011;18261;53.648;9.910;2023-07-31T14:21:28;0.85;;;0.70;;
31652;SDS011;18261;53.648;9.910;2023-07-31T14:23:54;1.80;;;0.77;;
31652;SDS011;18261;53.648;9.910;2023-07-31T14:26:20;9.25;;;4.30;;
31652;SDS011;18261;53.648;9.910;2023-07-31T14:28:46;5.75;;;2.03;;
31652;SDS011;18261;53.648;9.910;2023-07-31T14:31:12;2.13;;;0.85;;
31652;SDS011;18261;53.648;9.910;2023-07-31T14:33:38;1.83;;;0.98;;
31652;SDS011;18261;53.648;9.910;2023-07-31T14:36:04;2.80;;;1.60;;
31652;SDS011;18261;53.648;9.910;2023-07-31T14:38:30;2.40;;;0.95;;
31652;SDS011;18261;53.648;9.910;2023-07-31T14:40:56;4.18;;;2.20;;
31652;SDS011;18261;53.648;9.910;2023-07-31T14:43:22;4.30;;;1.90;;
31652;SDS011;18261;53.648;9.910;2023-07-31T14:45:48;4.93;;;1.50;;
31652;SDS011;18261;53.648;9.910;2023-07-31T14:48:14;1.67;;;1.05;;
31652;SDS011;18261;53.648;9.910;2023-07-31T14:50:40;3.25;;;0.68;;
31652;SDS011;18261;53.648;9.910;2023-07-31T14:53:06;1.65;;;1.10;;
31652;SDS011;18261;53.648;9.910;2023-07-31T14:55:32;2.47;;;0.80;;